createdAt,value
2018-08-04T00:00:17.427Z,4.42
2018-08-04T00:02:19.644Z,3.70
2018-08-04T00:04:21.901Z,4.15
2018-08-04T00:06:24.141Z,4.20
2018-08-04T00:08:26.375Z,4.17
2018-08-04T00:10:28.621Z,3.45
2018-08-04T00:12:30.839Z,3.90
2018-08-04T00:14:33.077Z,4.00
2018-08-04T00:16:35.318Z,3.47
2018-08-04T00:18:37.538Z,3.50
2018-08-04T00:20:39.771Z,4.10
2018-08-04T00:22:42.022Z,3.05
2018-08-04T00:24:44.249Z,3.35
2018-08-04T00:26:46.467Z,3.42
2018-08-04T00:28:48.704Z,4.33
2018-08-04T00:30:50.922Z,3.80
2018-08-04T00:32:53.323Z,3.77
2018-08-04T00:34:55.573Z,3.70
2018-08-04T00:36:57.824Z,3.80
2018-08-04T00:39:00.065Z,3.70
2018-08-04T00:41:02.273Z,3.65
2018-08-04T00:43:04.540Z,3.10
2018-08-04T00:45:06.752Z,3.85
2018-08-04T00:47:08.971Z,3.50
2018-08-04T00:49:11.204Z,3.33
2018-08-04T00:51:13.468Z,3.10
2018-08-04T00:53:15.735Z,3.30
2018-08-04T00:55:17.931Z,3.72
2018-08-04T00:57:20.157Z,3.20
2018-08-04T00:59:22.386Z,3.47
2018-08-04T01:01:24.640Z,3.55
2018-08-04T01:03:26.874Z,3.10
2018-08-04T01:05:29.085Z,3.25
2018-08-04T01:07:31.336Z,3.10
2018-08-04T01:09:33.553Z,3.05
2018-08-04T01:11:35.816Z,2.85
2018-08-04T01:13:38.027Z,2.47
2018-08-04T01:15:40.244Z,2.80
2018-08-04T01:17:42.486Z,2.60
2018-08-04T01:19:44.726Z,2.60
2018-08-04T01:21:46.982Z,2.77
2018-08-04T01:23:49.190Z,2.80
2018-08-04T01:25:51.436Z,2.50
2018-08-04T01:27:53.648Z,2.80
2018-08-04T01:29:55.884Z,2.22
2018-08-04T01:31:58.098Z,2.52
2018-08-04T01:34:00.381Z,2.60
2018-08-04T01:36:02.554Z,2.52
2018-08-04T01:38:04.762Z,2.47
2018-08-04T01:40:07.024Z,2.25
2018-08-04T01:42:09.234Z,2.45
2018-08-04T01:44:11.486Z,2.52
2018-08-04T01:46:13.714Z,2.40
2018-08-04T01:48:15.926Z,2.60
2018-08-04T01:50:18.169Z,3.02
2018-08-04T01:52:20.430Z,2.40
2018-08-04T01:54:22.666Z,2.10
2018-08-04T01:56:24.882Z,2.40
2018-08-04T01:58:27.092Z,2.90
2018-08-04T02:00:29.358Z,2.52
2018-08-04T02:02:31.587Z,2.60
2018-08-04T02:04:33.796Z,2.00
2018-08-04T02:06:36.036Z,2.25
2018-08-04T02:08:38.282Z,2.20
2018-08-04T02:10:40.492Z,2.35
2018-08-04T02:12:42.720Z,2.50
2018-08-04T02:14:44.946Z,2.22
2018-08-04T02:16:47.157Z,1.90
2018-08-04T02:18:49.398Z,2.10
2018-08-04T02:20:51.645Z,2.05
2018-08-04T02:22:53.901Z,2.37
2018-08-04T02:24:56.141Z,2.30
2018-08-04T02:26:58.403Z,1.87
2018-08-04T02:29:00.629Z,2.50
2018-08-04T02:31:02.841Z,1.72
2018-08-04T02:33:05.084Z,2.08
2018-08-04T02:35:07.312Z,2.00
2018-08-04T02:37:09.525Z,1.90
2018-08-04T02:39:11.762Z,2.27
2018-08-04T02:41:13.973Z,2.00
2018-08-04T02:43:16.219Z,2.30
2018-08-04T02:45:18.441Z,2.27
2018-08-04T02:47:20.661Z,2.00
2018-08-04T02:49:22.897Z,2.00
2018-08-04T02:51:25.112Z,2.10
2018-08-04T02:53:27.359Z,1.95
2018-08-04T02:55:29.580Z,1.95
2018-08-04T02:57:31.826Z,1.72
2018-08-04T02:59:34.042Z,1.80
2018-08-04T03:01:36.293Z,1.90
2018-08-04T03:03:38.509Z,2.05
2018-08-04T03:05:40.752Z,1.70
2018-08-04T03:07:42.965Z,1.80
2018-08-04T03:09:45.175Z,1.80
2018-08-04T03:11:47.429Z,1.95
2018-08-04T03:13:49.648Z,1.67
2018-08-04T03:15:51.875Z,1.75
2018-08-04T03:17:54.114Z,1.70
2018-08-04T03:19:56.335Z,1.65
2018-08-04T03:21:58.583Z,1.85
2018-08-04T03:24:00.805Z,1.95
2018-08-04T03:26:03.023Z,2.12
2018-08-04T03:28:05.257Z,1.65
2018-08-04T03:30:07.516Z,1.98
2018-08-04T03:32:09.732Z,1.87
2018-08-04T03:34:11.955Z,1.70
2018-08-04T03:36:14.191Z,1.67
2018-08-04T03:38:16.417Z,1.80
2018-08-04T03:40:18.625Z,1.75
2018-08-04T03:42:20.860Z,1.95
2018-08-04T03:44:23.090Z,1.62
2018-08-04T03:46:25.344Z,1.70
2018-08-04T03:48:27.566Z,1.67
2018-08-04T03:50:29.780Z,1.70
2018-08-04T03:52:32.013Z,1.70
2018-08-04T03:54:34.238Z,1.65
2018-08-04T03:56:36.492Z,2.00
2018-08-04T03:58:38.711Z,1.52
2018-08-04T04:00:40.924Z,2.00
2018-08-04T04:02:43.160Z,1.50
2018-08-04T04:04:45.408Z,1.80
2018-08-04T04:06:47.649Z,1.60
2018-08-04T04:08:49.895Z,1.52
2018-08-04T04:10:52.124Z,1.82
2018-08-04T04:12:54.352Z,2.27
2018-08-04T04:14:56.562Z,1.82
2018-08-04T04:16:58.810Z,1.72
2018-08-04T04:19:01.028Z,2.92
2018-08-04T04:21:03.262Z,2.30
2018-08-04T04:23:05.512Z,2.60
2018-08-04T04:25:07.746Z,2.33
2018-08-04T04:27:09.969Z,2.80
2018-08-04T04:29:12.209Z,2.85
2018-08-04T04:31:14.478Z,2.52
2018-08-04T04:33:16.693Z,2.25
2018-08-04T04:35:18.928Z,2.60
2018-08-04T04:37:21.180Z,2.60
2018-08-04T04:39:23.389Z,2.45
2018-08-04T04:41:25.621Z,2.35
2018-08-04T04:43:27.840Z,2.65
2018-08-04T04:45:30.088Z,2.65
2018-08-04T04:47:32.320Z,2.95
2018-08-04T04:49:34.550Z,3.05
2018-08-04T04:51:36.766Z,3.12
2018-08-04T04:53:39.021Z,2.50
2018-08-04T04:55:41.240Z,3.33
2018-08-04T04:57:43.492Z,3.05
2018-08-04T04:59:45.726Z,2.87
2018-08-04T05:01:47.963Z,3.47
2018-08-04T05:03:50.209Z,2.65
2018-08-04T05:05:52.473Z,2.60
2018-08-04T05:07:54.695Z,2.80
2018-08-04T05:09:56.931Z,2.98
2018-08-04T05:11:59.165Z,2.70
2018-08-04T05:14:01.399Z,2.87
2018-08-04T05:16:03.650Z,2.00
2018-08-04T05:18:05.896Z,2.20
2018-08-04T05:20:08.118Z,2.30
2018-08-04T05:22:10.380Z,2.52
2018-08-04T05:24:12.586Z,2.92
2018-08-04T05:26:14.814Z,2.40
2018-08-04T05:28:17.048Z,2.70
2018-08-04T05:30:19.278Z,2.55
2018-08-04T05:32:21.536Z,2.30
2018-08-04T05:34:23.754Z,2.60
2018-08-04T05:36:25.962Z,1.98
2018-08-04T05:38:28.219Z,2.83
2018-08-04T05:40:30.420Z,2.40
2018-08-04T05:42:32.635Z,2.45
2018-08-04T05:44:34.899Z,2.70
2018-08-04T05:46:37.112Z,2.55
2018-08-04T05:48:39.337Z,3.65
2018-08-04T05:50:41.592Z,3.10
2018-08-04T05:52:43.812Z,3.17
2018-08-04T05:54:46.075Z,3.50
2018-08-04T05:56:48.318Z,2.85
2018-08-04T05:58:50.528Z,2.83
2018-08-04T06:00:52.750Z,2.55
2018-08-04T06:02:54.998Z,3.75
2018-08-04T06:04:57.242Z,29.15
2018-08-04T06:06:59.502Z,23.73
2018-08-04T06:09:01.734Z,34.40
2018-08-04T06:11:03.959Z,25.68
2018-08-04T06:13:06.206Z,20.68
2018-08-04T06:15:08.432Z,8.75
2018-08-04T06:17:10.653Z,5.60
2018-08-04T06:19:12.908Z,4.50
2018-08-04T06:21:15.152Z,4.37
2018-08-04T06:23:17.362Z,4.53
2018-08-04T06:25:19.616Z,3.55
2018-08-04T06:27:21.842Z,3.20
2018-08-04T06:29:24.076Z,4.12
2018-08-04T06:31:26.290Z,3.15
2018-08-04T06:33:28.538Z,3.67
2018-08-04T06:35:30.788Z,3.70
2018-08-04T06:37:32.985Z,3.67
2018-08-04T06:39:35.246Z,4.00
2018-08-04T06:41:37.469Z,4.62
2018-08-04T06:43:39.728Z,3.70
2018-08-04T06:45:41.939Z,3.62
2018-08-04T06:47:44.188Z,4.60
2018-08-04T06:49:46.451Z,3.92
2018-08-04T06:51:48.659Z,3.37
2018-08-04T06:53:50.884Z,4.03
2018-08-04T06:55:53.139Z,61.33
2018-08-04T06:57:55.362Z,33.20
2018-08-04T06:59:57.583Z,21.82
2018-08-04T07:01:59.838Z,13.78
2018-08-04T07:04:02.084Z,9.30
2018-08-04T07:06:04.327Z,6.97
2018-08-04T07:08:06.544Z,5.97
2018-08-04T07:10:08.789Z,4.17
2018-08-04T07:12:11.061Z,14.03
2018-08-04T07:14:13.316Z,17.50
2018-08-04T07:16:15.575Z,25.27
2018-08-04T07:18:17.808Z,34.85
2018-08-04T07:20:20.066Z,21.50
2018-08-04T07:22:22.294Z,12.55
2018-08-04T07:24:24.550Z,6.72
2018-08-04T07:26:26.772Z,5.45
2018-08-04T07:28:29.016Z,5.22
2018-08-04T07:30:31.252Z,3.90
2018-08-04T07:32:33.546Z,4.35
2018-08-04T07:34:35.744Z,4.35
2018-08-04T07:36:37.959Z,3.65
2018-08-04T07:38:40.197Z,3.33
2018-08-04T07:40:42.445Z,3.83
2018-08-04T07:42:44.652Z,3.58
2018-08-04T07:44:46.947Z,3.30
2018-08-04T07:46:49.165Z,3.25
2018-08-04T07:48:51.413Z,168.82
2018-08-04T07:50:53.681Z,78.50
2018-08-04T07:52:55.913Z,49.00
2018-08-04T07:54:58.136Z,38.55
2018-08-04T07:57:00.373Z,19.23
2018-08-04T07:59:02.659Z,10.10
2018-08-04T08:01:04.908Z,7.60
2018-08-04T08:03:07.135Z,5.03
2018-08-04T08:05:09.390Z,4.87
2018-08-04T08:07:11.593Z,4.85
2018-08-04T08:09:13.843Z,3.62
2018-08-04T08:11:16.108Z,4.03
2018-08-04T08:13:18.324Z,3.80
2018-08-04T08:15:20.539Z,3.67
2018-08-04T08:17:22.762Z,3.62
2018-08-04T08:19:25.068Z,3.50
2018-08-04T08:21:27.249Z,3.47
2018-08-04T08:23:29.531Z,3.12
2018-08-04T08:25:31.749Z,9.35
2018-08-04T08:27:33.976Z,12.98
2018-08-04T08:29:36.201Z,11.20
2018-08-04T08:31:38.520Z,13.48
2018-08-04T08:33:40.697Z,8.28
2018-08-04T08:35:43.462Z,7.30
2018-08-04T08:37:45.727Z,4.90
2018-08-04T08:39:47.944Z,5.22
2018-08-04T08:41:50.189Z,5.20
2018-08-04T08:43:52.433Z,4.20
2018-08-04T08:45:54.715Z,4.10
2018-08-04T08:47:56.910Z,3.75
2018-08-04T08:49:59.148Z,3.37
2018-08-04T08:52:01.407Z,3.65
2018-08-04T08:54:03.909Z,4.25
2018-08-04T08:56:05.928Z,3.67
2018-08-04T08:58:08.168Z,3.15
2018-08-04T09:00:10.460Z,3.12
2018-08-04T09:02:12.685Z,3.25
2018-08-04T09:04:14.919Z,3.90
2018-08-04T09:06:17.785Z,2.75
2018-08-04T09:08:20.041Z,3.27
2018-08-04T09:10:22.291Z,3.62
2018-08-04T09:12:24.562Z,3.42
2018-08-04T09:14:26.904Z,3.35
2018-08-04T09:16:29.105Z,3.20
2018-08-04T09:18:31.363Z,3.30
2018-08-04T09:20:33.582Z,3.40
2018-08-04T09:22:35.858Z,2.90
2018-08-04T09:24:38.855Z,2.87
2018-08-04T09:26:41.077Z,3.00
2018-08-04T09:28:43.361Z,3.30
2018-08-04T09:30:45.618Z,2.85
2018-08-04T09:32:47.890Z,3.67
2018-08-04T09:34:50.166Z,2.80
2018-08-04T09:36:52.378Z,3.35
2018-08-04T09:38:54.618Z,3.47
2018-08-04T09:40:56.839Z,3.10
2018-08-04T09:42:59.933Z,13.72
2018-08-04T09:45:02.191Z,27.50
2018-08-04T09:47:04.440Z,51.30
2018-08-04T09:49:06.788Z,29.32
2018-08-04T09:51:09.098Z,23.60
2018-08-04T09:53:11.331Z,23.47
2018-08-04T09:55:13.560Z,10.08
2018-08-04T09:57:15.824Z,13.32
2018-08-04T09:59:18.045Z,12.65
2018-08-04T10:01:20.296Z,9.70
2018-08-04T10:03:22.502Z,8.30
2018-08-04T10:05:24.741Z,5.53
2018-08-04T10:07:26.949Z,4.87
2018-08-04T10:09:29.214Z,4.10
2018-08-04T10:11:31.426Z,4.37
2018-08-04T10:13:33.656Z,12.03
2018-08-04T10:15:35.898Z,413.27
2018-08-04T10:17:38.154Z,588.00
2018-08-04T10:19:40.396Z,302.45
2018-08-04T10:21:42.639Z,217.85
2018-08-04T10:23:44.865Z,103.83
2018-08-04T10:25:47.127Z,53.50
2018-08-04T10:27:49.377Z,91.82
2018-08-04T10:29:51.617Z,181.43
2018-08-04T10:31:53.973Z,95.83
2018-08-04T10:33:56.128Z,57.40
2018-08-04T10:35:58.348Z,139.85
2018-08-04T10:38:00.620Z,120.87
2018-08-04T10:40:02.841Z,155.18
2018-08-04T10:42:05.066Z,108.87
2018-08-04T10:44:07.398Z,176.68
2018-08-04T10:46:09.568Z,108.60
2018-08-04T10:48:11.831Z,84.25
2018-08-04T10:50:14.038Z,103.55
2018-08-04T10:52:16.284Z,146.75
2018-08-04T10:54:18.540Z,106.07
2018-08-04T10:56:20.778Z,117.33
2018-08-04T10:58:23.001Z,82.53
2018-08-04T11:00:25.275Z,50.95
2018-08-04T11:02:27.534Z,44.65
2018-08-04T11:04:29.746Z,32.93
2018-08-04T11:06:31.970Z,33.13
2018-08-04T11:08:34.230Z,32.42
2018-08-04T11:10:36.456Z,27.02
2018-08-04T11:12:38.720Z,29.95
2018-08-04T11:14:40.946Z,23.57
2018-08-04T11:16:43.241Z,21.12
2018-08-04T11:18:45.474Z,19.12
2018-08-04T11:20:47.694Z,14.18
2018-08-04T11:22:49.921Z,14.28
2018-08-04T11:24:52.165Z,11.22
2018-08-04T11:26:54.423Z,12.60
2018-08-04T11:28:56.669Z,12.65
2018-08-04T11:30:58.997Z,11.40
2018-08-04T11:33:01.158Z,9.48
2018-08-04T11:35:03.406Z,9.30
2018-08-04T11:37:05.617Z,9.25
2018-08-04T11:39:07.844Z,7.45
2018-08-04T11:41:10.177Z,7.75
2018-08-04T11:43:12.433Z,6.55
2018-08-04T11:45:14.665Z,5.65
2018-08-04T11:47:16.864Z,5.65
2018-08-04T11:49:19.137Z,6.17
2018-08-04T11:51:21.392Z,5.75
2018-08-04T11:53:23.620Z,5.70
2018-08-04T11:55:25.873Z,4.17
2018-08-04T11:57:28.091Z,3.80
2018-08-04T11:59:30.342Z,3.50
2018-08-04T12:01:32.609Z,3.62
2018-08-04T12:03:34.848Z,3.33
2018-08-04T12:05:37.064Z,3.20
2018-08-04T12:07:39.307Z,2.92
2018-08-04T12:09:41.561Z,3.58
2018-08-04T12:11:43.797Z,3.70
2018-08-04T12:13:46.013Z,3.70
2018-08-04T12:15:48.222Z,3.60
2018-08-04T12:17:50.484Z,3.00
2018-08-04T12:19:52.702Z,3.10
2018-08-04T12:21:55.060Z,3.33
2018-08-04T12:23:57.308Z,3.47
2018-08-04T12:25:59.539Z,3.20
2018-08-04T12:28:01.779Z,2.42
2018-08-04T12:30:03.996Z,2.70
2018-08-04T12:32:06.213Z,3.00
2018-08-04T12:34:08.461Z,3.10
2018-08-04T12:36:10.682Z,2.83
2018-08-04T12:38:12.921Z,2.80
2018-08-04T12:40:15.189Z,2.60
2018-08-04T12:42:17.408Z,2.87
2018-08-04T12:44:19.642Z,2.10
2018-08-04T12:46:21.860Z,2.60
2018-08-04T12:48:24.120Z,2.15
2018-08-04T12:50:26.335Z,2.55
2018-08-04T12:52:28.567Z,2.08
2018-08-04T12:54:30.882Z,2.30
2018-08-04T12:56:33.041Z,2.58
2018-08-04T12:58:35.286Z,2.40
2018-08-04T13:00:37.490Z,2.42
2018-08-04T13:02:39.744Z,2.70
2018-08-04T13:04:41.944Z,135.55
2018-08-04T13:06:44.204Z,106.25
2018-08-04T13:08:46.476Z,39.30
2018-08-04T13:10:48.692Z,45.45
2018-08-04T13:12:50.896Z,46.77
2018-08-04T13:14:53.174Z,35.45
2018-08-04T13:16:55.426Z,29.55
2018-08-04T13:18:57.678Z,21.93
2018-08-04T13:21:00.190Z,15.13
2018-08-04T13:23:02.486Z,15.85
2018-08-04T13:25:04.700Z,11.18
2018-08-04T13:27:06.961Z,19.55
2018-08-04T13:29:09.196Z,328.12
2018-08-04T13:31:11.441Z,292.73
2018-08-04T13:33:13.694Z,161.35
2018-08-04T13:35:15.938Z,103.30
2018-08-04T13:37:18.191Z,42.25
2018-08-04T13:39:20.404Z,34.67
2018-08-04T13:41:22.640Z,27.80
2018-08-04T13:43:24.862Z,15.23
2018-08-04T13:45:27.109Z,20.45
2018-08-04T13:47:29.342Z,13.05
2018-08-04T13:49:31.604Z,10.08
2018-08-04T13:51:33.826Z,9.10
2018-08-04T13:53:36.067Z,7.40
2018-08-04T13:55:38.359Z,5.62
2018-08-04T13:57:40.556Z,4.42
2018-08-04T13:59:42.874Z,8.73
2018-08-04T14:01:45.040Z,191.70
2018-08-04T14:03:47.304Z,159.32
2018-08-04T14:05:49.588Z,125.07
2018-08-04T14:07:51.840Z,99.35
2018-08-04T14:09:54.071Z,71.57
2018-08-04T14:11:56.359Z,54.58
2018-08-04T14:13:58.584Z,25.92
2018-08-04T14:16:00.838Z,307.05
2018-08-04T14:18:03.059Z,191.40
2018-08-04T14:20:05.323Z,138.30
2018-08-04T14:22:07.586Z,84.30
2018-08-04T14:24:09.852Z,79.50
2018-08-04T14:26:12.132Z,22.20
2018-08-04T14:28:14.381Z,36.10
2018-08-04T14:30:16.584Z,21.73
2018-08-04T14:32:18.843Z,10.20
2018-08-04T14:34:21.099Z,10.25
2018-08-04T14:36:23.324Z,30.08
2018-08-04T14:38:25.563Z,121.13
2018-08-04T14:40:27.799Z,127.55
2018-08-04T14:42:30.064Z,112.90
2018-08-04T14:44:32.320Z,99.07
2018-08-04T14:46:34.557Z,174.05
2018-08-04T14:48:36.833Z,154.45
2018-08-04T14:50:39.072Z,90.22
2018-08-04T14:52:41.332Z,60.00
2018-08-04T14:54:43.558Z,52.60
2018-08-04T14:56:45.803Z,43.78
2018-08-04T14:58:48.038Z,122.58
2018-08-04T15:00:50.298Z,110.45
2018-08-04T15:02:52.552Z,126.07
2018-08-04T15:04:54.843Z,76.72
2018-08-04T15:06:57.069Z,39.90
2018-08-04T15:08:59.271Z,45.73
2018-08-04T15:11:01.506Z,28.10
2018-08-04T15:13:03.742Z,25.15
2018-08-04T15:15:06.014Z,18.17
2018-08-04T15:17:08.238Z,11.40
2018-08-04T15:19:10.494Z,10.38
2018-08-04T15:21:12.727Z,9.78
2018-08-04T15:23:14.999Z,7.62
2018-08-04T15:25:17.207Z,6.37
2018-08-04T15:27:19.437Z,19.00
2018-08-04T15:29:21.687Z,279.77
2018-08-04T15:31:23.938Z,165.50
2018-08-04T15:33:26.182Z,107.63
2018-08-04T15:35:28.435Z,300.93
2018-08-04T15:37:30.678Z,151.87
2018-08-04T15:39:32.921Z,94.37
2018-08-04T15:41:35.215Z,85.05
2018-08-04T15:43:37.454Z,60.98
2018-08-04T15:45:39.713Z,34.73
2018-08-04T15:47:41.969Z,19.12
2018-08-04T15:49:44.193Z,297.10
2018-08-04T15:51:46.501Z,152.32
2018-08-04T15:53:48.789Z,161.37
2018-08-04T15:55:51.079Z,197.57
2018-08-04T15:57:53.313Z,135.00
2018-08-04T15:59:55.553Z,61.37
2018-08-04T16:01:57.816Z,46.80
2018-08-04T16:04:00.057Z,37.00
2018-08-04T16:06:02.299Z,46.33
2018-08-04T16:08:04.547Z,291.65
2018-08-04T16:10:06.763Z,207.77
2018-08-04T16:12:09.026Z,157.80
2018-08-04T16:14:11.268Z,298.52
2018-08-04T16:16:13.527Z,193.47
2018-08-04T16:18:15.751Z,87.35
2018-08-04T16:20:17.998Z,63.13
2018-08-04T16:22:20.218Z,55.50
2018-08-04T16:24:22.498Z,41.65
2018-08-04T16:26:24.726Z,26.37
2018-08-04T16:28:26.950Z,17.98
2018-08-04T16:30:29.187Z,16.60
2018-08-04T16:32:31.408Z,12.90
2018-08-04T16:34:33.636Z,10.10
2018-08-04T16:36:35.870Z,11.05
2018-08-04T16:38:38.130Z,8.63
2018-08-04T16:40:40.369Z,5.80
2018-08-04T16:42:42.633Z,26.75
2018-08-04T16:44:44.844Z,485.63
2018-08-04T16:46:47.079Z,173.65
2018-08-04T16:48:49.360Z,379.55
2018-08-04T16:50:51.587Z,179.70
2018-08-04T16:52:53.838Z,77.35
2018-08-04T16:54:56.114Z,80.70
2018-08-04T16:56:58.393Z,133.67
2018-08-04T16:59:00.586Z,230.75
2018-08-04T17:01:02.836Z,155.97
2018-08-04T17:03:05.124Z,197.40
2018-08-04T17:05:07.403Z,105.43
2018-08-04T17:07:09.675Z,87.45
2018-08-04T17:09:11.930Z,195.35
2018-08-04T17:11:14.188Z,99.75
2018-08-04T17:13:16.423Z,131.87
2018-08-04T17:15:18.681Z,78.67
2018-08-04T17:17:20.939Z,84.20
2018-08-04T17:19:23.174Z,66.10
2018-08-04T17:21:25.416Z,55.40
2018-08-04T17:23:27.651Z,47.73
2018-08-04T17:25:29.893Z,100.02
2018-08-04T17:27:32.136Z,78.90
2018-08-04T17:29:34.394Z,78.33
2018-08-04T17:31:36.631Z,84.95
2018-08-04T17:33:38.847Z,80.30
2018-08-04T17:35:41.120Z,50.40
2018-08-04T17:37:43.438Z,52.98
2018-08-04T17:39:45.602Z,78.83
2018-08-04T17:41:47.871Z,108.03
2018-08-04T17:43:50.102Z,71.90
2018-08-04T17:45:52.326Z,44.18
2018-08-04T17:47:54.578Z,27.93
2018-08-04T17:49:56.822Z,24.12
2018-08-04T17:51:59.031Z,13.48
2018-08-04T17:54:01.284Z,10.63
2018-08-04T17:56:03.503Z,11.15
2018-08-04T17:58:05.739Z,9.38
2018-08-04T18:00:07.973Z,8.40
2018-08-04T18:02:10.220Z,8.23
2018-08-04T18:04:12.476Z,4.70
2018-08-04T18:06:14.701Z,4.28
2018-08-04T18:08:16.931Z,4.90
2018-08-04T18:10:19.161Z,5.25
2018-08-04T18:12:21.371Z,5.00
2018-08-04T18:14:23.575Z,3.87
2018-08-04T18:16:25.813Z,3.75
2018-08-04T18:18:28.055Z,60.63
2018-08-04T18:20:30.289Z,291.38
2018-08-04T18:22:32.508Z,144.70
2018-08-04T18:24:34.761Z,55.48
2018-08-04T18:26:37.001Z,36.73
2018-08-04T18:28:39.237Z,24.75
2018-08-04T18:30:41.576Z,45.00
2018-08-04T18:32:43.792Z,90.67
2018-08-04T18:34:46.020Z,38.70
2018-08-04T18:36:48.262Z,24.00
2018-08-04T18:38:50.512Z,13.70
2018-08-04T18:40:52.733Z,9.75
2018-08-04T18:42:54.948Z,10.08
2018-08-04T18:44:57.178Z,7.12
2018-08-04T18:46:59.394Z,7.28
2018-08-04T18:49:01.613Z,5.62
2018-08-04T18:51:03.851Z,12.82
2018-08-04T18:53:06.168Z,56.42
2018-08-04T18:55:08.364Z,67.82
2018-08-04T18:57:14.049Z,71.97
2018-08-04T18:59:16.292Z,46.77
2018-08-04T19:01:18.522Z,38.38
2018-08-04T19:03:20.769Z,19.12
2018-08-04T19:05:23.007Z,29.30
2018-08-04T19:07:25.357Z,43.08
2018-08-04T19:09:27.605Z,41.23
2018-08-04T19:11:29.855Z,26.82
2018-08-04T19:13:32.100Z,23.47
2018-08-04T19:15:34.345Z,10.70
2018-08-04T19:17:36.600Z,6.53
2018-08-04T19:19:38.846Z,23.42
2018-08-04T19:21:41.038Z,95.32
2018-08-04T19:23:43.313Z,74.30
2018-08-04T19:25:45.551Z,68.37
2018-08-04T19:27:47.865Z,17.25
2018-08-04T19:29:50.062Z,19.52
2018-08-04T19:31:52.325Z,10.60
2018-08-04T19:33:54.582Z,7.60
2018-08-04T19:35:56.805Z,44.98
2018-08-04T19:37:59.010Z,82.97
2018-08-04T19:40:01.279Z,39.23
2018-08-04T19:42:03.507Z,26.93
2018-08-04T19:44:06.595Z,17.07
2018-08-04T19:46:08.822Z,9.10
2018-08-04T19:48:11.111Z,6.30
2018-08-04T19:50:13.316Z,5.92
2018-08-04T19:52:15.535Z,3.22
2018-08-04T19:54:17.798Z,2.90
2018-08-04T19:56:20.006Z,2.10
2018-08-04T19:58:22.257Z,1.90
2018-08-04T20:00:24.531Z,1.90
2018-08-04T20:02:26.722Z,1.90
2018-08-04T20:04:28.939Z,2.17
2018-08-04T20:06:31.160Z,2.42
2018-08-04T20:08:33.449Z,36.20
2018-08-04T20:10:35.651Z,67.72
2018-08-04T20:12:37.893Z,142.77
2018-08-04T20:14:40.141Z,122.85
2018-08-04T20:16:42.363Z,150.05
2018-08-04T20:18:44.629Z,120.20
2018-08-04T20:20:46.912Z,97.00
2018-08-04T20:22:49.171Z,97.10
2018-08-04T20:24:51.397Z,73.22
2018-08-04T20:26:53.667Z,113.25
2018-08-04T20:28:55.909Z,146.93
2018-08-04T20:30:58.159Z,141.32
2018-08-04T20:33:00.391Z,140.57
2018-08-04T20:35:02.654Z,114.08
2018-08-04T20:37:04.896Z,104.70
2018-08-04T20:39:07.145Z,112.57
2018-08-04T20:41:09.387Z,80.62
2018-08-04T20:43:11.646Z,75.83
2018-08-04T20:45:13.903Z,59.85
2018-08-04T20:47:16.106Z,51.80
2018-08-04T20:49:18.346Z,49.35
2018-08-04T20:51:20.609Z,41.80
2018-08-04T20:53:22.875Z,35.10
2018-08-04T20:55:25.101Z,28.57
2018-08-04T20:57:27.330Z,34.92
2018-08-04T20:59:29.573Z,25.95
2018-08-04T21:01:31.808Z,29.82
2018-08-04T21:03:34.043Z,52.88
2018-08-04T21:05:36.280Z,74.47
2018-08-04T21:07:38.525Z,70.52
2018-08-04T21:09:40.760Z,59.13
2018-08-04T21:11:43.098Z,62.35
2018-08-04T21:13:45.257Z,53.40
2018-08-04T21:15:47.522Z,42.80
2018-08-04T21:17:49.771Z,38.92
2018-08-04T21:19:52.003Z,35.65
2018-08-04T21:21:54.220Z,30.97
2018-08-04T21:23:56.474Z,28.07
2018-08-04T21:25:58.728Z,40.92
2018-08-04T21:28:00.966Z,64.72
2018-08-04T21:30:03.180Z,60.50
2018-08-04T21:32:05.454Z,61.23
2018-08-04T21:34:07.676Z,52.93
2018-08-04T21:36:09.901Z,45.58
2018-08-04T21:38:12.166Z,42.90
2018-08-04T21:40:14.395Z,38.33
2018-08-04T21:42:16.636Z,35.23
2018-08-04T21:44:18.926Z,26.15
2018-08-04T21:46:21.137Z,27.65
2018-08-04T21:48:23.340Z,26.27
2018-08-04T21:50:25.620Z,74.10
2018-08-04T21:52:27.976Z,101.65
2018-08-04T21:54:30.085Z,78.28
2018-08-04T21:56:32.336Z,69.45
2018-08-04T21:58:34.573Z,64.40
2018-08-04T22:00:36.895Z,62.38
2018-08-04T22:02:39.080Z,44.80
2018-08-04T22:04:41.315Z,38.35
2018-08-04T22:06:43.552Z,33.18
2018-08-04T22:08:45.788Z,31.95
2018-08-04T22:10:48.069Z,30.62
2018-08-04T22:12:50.314Z,59.05
2018-08-04T22:14:52.503Z,105.95
2018-08-04T22:16:54.763Z,101.92
2018-08-04T22:18:57.022Z,89.97
2018-08-04T22:20:59.242Z,73.42
2018-08-04T22:23:01.476Z,74.40
2018-08-04T22:25:03.712Z,89.95
2018-08-04T22:27:05.957Z,124.18
2018-08-04T22:29:08.217Z,100.07
2018-08-04T22:31:10.452Z,101.05
2018-08-04T22:33:12.704Z,91.53
2018-08-04T22:35:14.941Z,86.78
2018-08-04T22:37:17.165Z,71.62
2018-08-04T22:39:19.416Z,62.38
2018-08-04T22:41:21.721Z,87.00
2018-08-04T22:43:23.899Z,143.90
2018-08-04T22:45:26.141Z,115.92
2018-08-04T22:47:28.374Z,170.38
2018-08-04T22:49:30.637Z,130.57
2018-08-04T22:51:32.877Z,109.57
2018-08-04T22:53:35.145Z,100.87
2018-08-04T22:55:37.365Z,86.30
2018-08-04T22:57:39.595Z,82.50
2018-08-04T22:59:41.831Z,67.05
2018-08-04T23:01:44.076Z,59.67
2018-08-04T23:05:48.547Z,52.70
2018-08-04T23:07:50.760Z,48.20
2018-08-04T23:09:53.004Z,45.73
2018-08-04T23:11:55.215Z,41.33
2018-08-04T23:13:57.475Z,39.40
2018-08-04T23:15:59.710Z,32.20
2018-08-04T23:18:01.941Z,31.33
2018-08-04T23:20:04.175Z,27.73
2018-08-04T23:22:06.431Z,23.27
2018-08-04T23:24:08.688Z,22.67
2018-08-04T23:26:10.913Z,19.23
2018-08-04T23:30:21.763Z,15.95
2018-08-04T23:32:24.000Z,12.55
2018-08-04T23:34:26.246Z,11.73
2018-08-04T23:36:28.480Z,10.63
2018-08-04T23:38:30.736Z,10.88
2018-08-04T23:40:32.970Z,8.85
2018-08-04T23:42:35.205Z,7.90
2018-08-04T23:44:37.423Z,6.80
2018-08-04T23:46:39.672Z,7.08
2018-08-04T23:48:41.889Z,5.97
2018-08-04T23:50:44.134Z,6.62
2018-08-04T23:52:46.345Z,5.58
2018-08-04T23:54:48.593Z,5.45
2018-08-04T23:56:50.818Z,4.85
2018-08-04T23:58:53.054Z,4.40
